sensor_id;sensor_type;location;lat;lon;timestamp;P1;durP1;ratioP1;P2;durP2;ratioP2
18905;SDS011;9585;51.018;4.282;2022-07-23T00:01:56;9.00;;;8.10;;
18905;SDS011;9585;51.018;4.282;2022-07-23T00:04:24;9.98;;;8.98;;
18905;SDS011;9585;51.018;4.282;2022-07-23T00:06:53;12.60;;;10.98;;
18905;SDS011;9585;51.018;4.282;2022-07-23T00:09:20;13.93;;;11.13;;
18905;SDS011;9585;51.018;4.282;2022-07-23T00:11:48;13.63;;;11.07;;
18905;SDS011;9585;51.018;4.282;2022-07-23T00:14:15;10.05;;;9.07;;
18905;SDS011;9585;51.018;4.282;2022-07-23T00:16:42;9.55;;;8.68;;
18905;SDS011;9585;51.018;4.282;2022-07-23T00:19:10;12.75;;;9.95;;
18905;SDS011;9585;51.018;4.282;2022-07-23T00:21:37;9.88;;;8.93;;
18905;SDS011;9585;51.018;4.282;2022-07-23T00:24:06;10.20;;;9.13;;
18905;SDS011;9585;51.018;4.282;2022-07-23T00:26:34;9.25;;;8.35;;
18905;SDS011;9585;51.018;4.282;2022-07-23T00:29:01;10.02;;;8.48;;
18905;SDS011;9585;51.018;4.282;2022-07-23T00:31:29;9.38;;;8.45;;
18905;SDS011;9585;51.018;4.282;2022-07-23T00:33:56;9.50;;;8.45;;
18905;SDS011;9585;51.018;4.282;2022-07-23T00:36:26;9.20;;;7.95;;
18905;SDS011;9585;51.018;4.282;2022-07-23T00:38:54;10.50;;;8.98;;
18905;SDS011;9585;51.018;4.282;2022-07-23T00:41:23;8.38;;;7.57;;
18905;SDS011;9585;51.018;4.282;2022-07-23T00:43:50;8.45;;;7.32;;
18905;SDS011;9585;51.018;4.282;2022-07-23T00:46:18;8.23;;;7.53;;
18905;SDS011;9585;51.018;4.282;2022-07-23T00:48:46;8.43;;;7.63;;
18905;SDS011;9585;51.018;4.282;2022-07-23T00:51:14;10.07;;;8.25;;
18905;SDS011;9585;51.018;4.282;2022-07-23T00:53:42;9.48;;;8.57;;
18905;SDS011;9585;51.018;4.282;2022-07-23T00:56:11;8.68;;;7.78;;
18905;SDS011;9585;51.018;4.282;2022-07-23T00:58:41;10.85;;;8.02;;
18905;SDS011;9585;51.018;4.282;2022-07-23T01:01:10;9.45;;;7.85;;
18905;SDS011;9585;51.018;4.282;2022-07-23T01:03:38;9.48;;;8.23;;
18905;SDS011;9585;51.018;4.282;2022-07-23T01:06:08;9.43;;;8.23;;
18905;SDS011;9585;51.018;4.282;2022-07-23T01:08:36;9.93;;;8.63;;
18905;SDS011;9585;51.018;4.282;2022-07-23T01:11:03;10.98;;;9.30;;
18905;SDS011;9585;51.018;4.282;2022-07-23T01:13:31;10.60;;;9.55;;
18905;SDS011;9585;51.018;4.282;2022-07-23T01:16:00;8.38;;;7.57;;
18905;SDS011;9585;51.018;4.282;2022-07-23T01:18:28;8.73;;;7.82;;
18905;SDS011;9585;51.018;4.282;2022-07-23T01:20:55;7.93;;;7.15;;
18905;SDS011;9585;51.018;4.282;2022-07-23T01:23:25;8.75;;;7.85;;
18905;SDS011;9585;51.018;4.282;2022-07-23T01:25:53;8.25;;;7.45;;
18905;SDS011;9585;51.018;4.282;2022-07-23T01:28:20;9.73;;;8.57;;
18905;SDS011;9585;51.018;4.282;2022-07-23T01:30:48;9.93;;;8.73;;
18905;SDS011;9585;51.018;4.282;2022-07-23T01:33:16;8.85;;;7.97;;
18905;SDS011;9585;51.018;4.282;2022-07-23T01:35:43;8.10;;;7.28;;
18905;SDS011;9585;51.018;4.282;2022-07-23T01:38:11;8.43;;;7.63;;
18905;SDS011;9585;51.018;4.282;2022-07-23T01:40:39;7.95;;;7.15;;
18905;SDS011;9585;51.018;4.282;2022-07-23T01:43:07;9.05;;;7.68;;
18905;SDS011;9585;51.018;4.282;2022-07-23T01:45:34;8.65;;;7.72;;
18905;SDS011;9585;51.018;4.282;2022-07-23T01:48:02;9.68;;;8.65;;
18905;SDS011;9585;51.018;4.282;2022-07-23T01:50:29;10.88;;;8.68;;
18905;SDS011;9585;51.018;4.282;2022-07-23T01:52:57;10.75;;;8.93;;
18905;SDS011;9585;51.018;4.282;2022-07-23T01:55:24;9.32;;;8.30;;
18905;SDS011;9585;51.018;4.282;2022-07-23T01:57:53;9.80;;;8.55;;
18905;SDS011;9585;51.018;4.282;2022-07-23T02:00:20;8.70;;;7.80;;
18905;SDS011;9585;51.018;4.282;2022-07-23T02:02:48;8.15;;;6.75;;
18905;SDS011;9585;51.018;4.282;2022-07-23T02:05:15;8.27;;;7.45;;
18905;SDS011;9585;51.018;4.282;2022-07-23T02:07:43;7.57;;;6.88;;
18905;SDS011;9585;51.018;4.282;2022-07-23T02:10:10;8.10;;;7.25;;
18905;SDS011;9585;51.018;4.282;2022-07-23T02:12:37;8.75;;;7.50;;
18905;SDS011;9585;51.018;4.282;2022-07-23T02:15:07;8.32;;;7.18;;
18905;SDS011;9585;51.018;4.282;2022-07-23T02:17:35;8.77;;;7.03;;
18905;SDS011;9585;51.018;4.282;2022-07-23T02:20:03;9.55;;;7.00;;
18905;SDS011;9585;51.018;4.282;2022-07-23T02:22:31;7.05;;;6.35;;
18905;SDS011;9585;51.018;4.282;2022-07-23T02:24:58;7.20;;;6.50;;
18905;SDS011;9585;51.018;4.282;2022-07-23T02:27:26;7.28;;;6.57;;
18905;SDS011;9585;51.018;4.282;2022-07-23T02:29:54;7.32;;;6.35;;
18905;SDS011;9585;51.018;4.282;2022-07-23T02:32:23;8.02;;;7.07;;
18905;SDS011;9585;51.018;4.282;2022-07-23T02:34:50;6.97;;;6.28;;
18905;SDS011;9585;51.018;4.282;2022-07-23T02:37:18;8.73;;;7.65;;
18905;SDS011;9585;51.018;4.282;2022-07-23T02:39:46;11.57;;;8.27;;
18905;SDS011;9585;51.018;4.282;2022-07-23T02:42:14;9.07;;;7.85;;
18905;SDS011;9585;51.018;4.282;2022-07-23T02:44:41;8.27;;;7.38;;
18905;SDS011;9585;51.018;4.282;2022-07-23T02:47:08;7.82;;;6.60;;
18905;SDS011;9585;51.018;4.282;2022-07-23T02:49:37;8.93;;;7.45;;
18905;SDS011;9585;51.018;4.282;2022-07-23T02:52:05;7.63;;;6.63;;
18905;SDS011;9585;51.018;4.282;2022-07-23T02:54:32;8.82;;;7.55;;
18905;SDS011;9585;51.018;4.282;2022-07-23T02:56:59;8.10;;;7.28;;
18905;SDS011;9585;51.018;4.282;2022-07-23T02:59:27;8.27;;;6.93;;
18905;SDS011;9585;51.018;4.282;2022-07-23T03:01:54;8.73;;;6.63;;
18905;SDS011;9585;51.018;4.282;2022-07-23T03:04:22;8.45;;;7.57;;
18905;SDS011;9585;51.018;4.282;2022-07-23T03:06:50;7.05;;;6.38;;
18905;SDS011;9585;51.018;4.282;2022-07-23T03:09:18;7.53;;;6.82;;
18905;SDS011;9585;51.018;4.282;2022-07-23T03:11:46;7.00;;;6.30;;
18905;SDS011;9585;51.018;4.282;2022-07-23T03:14:13;7.20;;;6.30;;
18905;SDS011;9585;51.018;4.282;2022-07-23T03:16:41;9.07;;;7.95;;
18905;SDS011;9585;51.018;4.282;2022-07-23T03:19:09;9.43;;;7.30;;
18905;SDS011;9585;51.018;4.282;2022-07-23T03:21:36;7.88;;;6.85;;
18905;SDS011;9585;51.018;4.282;2022-07-23T03:24:08;6.82;;;6.03;;
18905;SDS011;9585;51.018;4.282;2022-07-23T03:26:36;7.55;;;6.47;;
18905;SDS011;9585;51.018;4.282;2022-07-23T03:29:03;9.35;;;6.88;;
18905;SDS011;9585;51.018;4.282;2022-07-23T03:31:31;8.98;;;6.95;;
18905;SDS011;9585;51.018;4.282;2022-07-23T03:33:58;7.43;;;6.60;;
18905;SDS011;9585;51.018;4.282;2022-07-23T03:36:26;7.63;;;6.82;;
18905;SDS011;9585;51.018;4.282;2022-07-23T03:38:53;8.90;;;7.05;;
18905;SDS011;9585;51.018;4.282;2022-07-23T03:41:22;9.05;;;7.20;;
18905;SDS011;9585;51.018;4.282;2022-07-23T03:43:49;7.18;;;6.47;;
18905;SDS011;9585;51.018;4.282;2022-07-23T03:46:17;6.80;;;6.10;;
18905;SDS011;9585;51.018;4.282;2022-07-23T03:48:44;7.03;;;6.35;;
18905;SDS011;9585;51.018;4.282;2022-07-23T03:51:12;7.03;;;5.95;;
18905;SDS011;9585;51.018;4.282;2022-07-23T03:53:39;7.30;;;6.60;;
18905;SDS011;9585;51.018;4.282;2022-07-23T03:56:06;8.30;;;5.97;;
18905;SDS011;9585;51.018;4.282;2022-07-23T03:58:35;8.60;;;6.68;;
18905;SDS011;9585;51.018;4.282;2022-07-23T04:01:03;7.47;;;6.43;;
18905;SDS011;9585;51.018;4.282;2022-07-23T04:03:30;7.15;;;6.43;;
18905;SDS011;9585;51.018;4.282;2022-07-23T04:05:57;7.10;;;6.40;;
18905;SDS011;9585;51.018;4.282;2022-07-23T04:08:25;7.18;;;6.28;;
18905;SDS011;9585;51.018;4.282;2022-07-23T04:10:52;6.57;;;5.72;;
18905;SDS011;9585;51.018;4.282;2022-07-23T04:13:20;9.10;;;7.43;;
18905;SDS011;9585;51.018;4.282;2022-07-23T04:15:49;8.13;;;7.32;;
18905;SDS011;9585;51.018;4.282;2022-07-23T04:18:17;6.95;;;6.25;;
18905;SDS011;9585;51.018;4.282;2022-07-23T04:20:46;8.45;;;7.13;;
18905;SDS011;9585;51.018;4.282;2022-07-23T04:23:14;7.63;;;6.82;;
18905;SDS011;9585;51.018;4.282;2022-07-23T04:25:42;6.72;;;6.03;;
18905;SDS011;9585;51.018;4.282;2022-07-23T04:28:09;7.13;;;6.43;;
18905;SDS011;9585;51.018;4.282;2022-07-23T04:30:37;7.53;;;6.72;;
18905;SDS011;9585;51.018;4.282;2022-07-23T04:33:06;7.78;;;6.70;;
18905;SDS011;9585;51.018;4.282;2022-07-23T04:35:33;7.72;;;6.80;;
18905;SDS011;9585;51.018;4.282;2022-07-23T04:38:01;8.23;;;7.05;;
18905;SDS011;9585;51.018;4.282;2022-07-23T04:40:29;7.93;;;7.13;;
18905;SDS011;9585;51.018;4.282;2022-07-23T04:42:56;7.05;;;6.22;;
18905;SDS011;9585;51.018;4.282;2022-07-23T04:45:24;5.97;;;5.47;;
18905;SDS011;9585;51.018;4.282;2022-07-23T04:47:51;6.47;;;5.72;;
18905;SDS011;9585;51.018;4.282;2022-07-23T04:50:20;5.93;;;5.32;;
18905;SDS011;9585;51.018;4.282;2022-07-23T04:52:48;6.80;;;5.55;;
18905;SDS011;9585;51.018;4.282;2022-07-23T04:55:15;6.90;;;5.78;;
18905;SDS011;9585;51.018;4.282;2022-07-23T04:57:43;5.63;;;5.13;;
18905;SDS011;9585;51.018;4.282;2022-07-23T05:00:11;5.30;;;4.80;;
18905;SDS011;9585;51.018;4.282;2022-07-23T05:02:38;6.57;;;5.88;;
18905;SDS011;9585;51.018;4.282;2022-07-23T05:05:06;6.30;;;5.70;;
18905;SDS011;9585;51.018;4.282;2022-07-23T05:07:35;5.10;;;4.57;;
18905;SDS011;9585;51.018;4.282;2022-07-23T05:10:03;6.90;;;6.05;;
18905;SDS011;9585;51.018;4.282;2022-07-23T05:12:31;6.82;;;5.20;;
18905;SDS011;9585;51.018;4.282;2022-07-23T05:14:58;6.18;;;5.57;;
18905;SDS011;9585;51.018;4.282;2022-07-23T05:17:26;6.07;;;5.20;;
18905;SDS011;9585;51.018;4.282;2022-07-23T05:19:53;5.93;;;5.43;;
18905;SDS011;9585;51.018;4.282;2022-07-23T05:22:21;6.10;;;5.50;;
18905;SDS011;9585;51.018;4.282;2022-07-23T05:24:49;5.80;;;5.13;;
18905;SDS011;9585;51.018;4.282;2022-07-23T05:27:17;5.55;;;5.03;;
18905;SDS011;9585;51.018;4.282;2022-07-23T05:29:44;5.30;;;4.75;;
18905;SDS011;9585;51.018;4.282;2022-07-23T05:32:11;6.07;;;4.95;;
18905;SDS011;9585;51.018;4.282;2022-07-23T05:34:39;5.80;;;4.95;;
18905;SDS011;9585;51.018;4.282;2022-07-23T05:37:06;5.13;;;4.60;;
18905;SDS011;9585;51.018;4.282;2022-07-23T05:39:33;4.88;;;4.22;;
18905;SDS011;9585;51.018;4.282;2022-07-23T05:42:03;5.28;;;3.90;;
18905;SDS011;9585;51.018;4.282;2022-07-23T05:44:30;4.93;;;4.32;;
18905;SDS011;9585;51.018;4.282;2022-07-23T05:46:57;5.03;;;4.40;;
18905;SDS011;9585;51.018;4.282;2022-07-23T05:49:25;5.30;;;4.80;;
18905;SDS011;9585;51.018;4.282;2022-07-23T05:51:52;5.28;;;4.65;;
18905;SDS011;9585;51.018;4.282;2022-07-23T05:54:20;6.28;;;5.38;;
18905;SDS011;9585;51.018;4.282;2022-07-23T05:56:47;4.25;;;3.85;;
18905;SDS011;9585;51.018;4.282;2022-07-23T05:59:17;5.45;;;4.95;;
18905;SDS011;9585;51.018;4.282;2022-07-23T06:01:44;5.68;;;4.85;;
18905;SDS011;9585;51.018;4.282;2022-07-23T06:04:11;6.85;;;5.70;;
18905;SDS011;9585;51.018;4.282;2022-07-23T06:06:39;6.10;;;5.50;;
18905;SDS011;9585;51.018;4.282;2022-07-23T06:09:06;6.57;;;5.88;;
18905;SDS011;9585;51.018;4.282;2022-07-23T06:11:33;6.00;;;5.40;;
18905;SDS011;9585;51.018;4.282;2022-07-23T06:14:01;6.78;;;5.45;;
18905;SDS011;9585;51.018;4.282;2022-07-23T06:16:30;6.30;;;5.15;;
18905;SDS011;9585;51.018;4.282;2022-07-23T06:18:57;5.30;;;4.80;;
18905;SDS011;9585;51.018;4.282;2022-07-23T06:21:24;6.60;;;5.93;;
18905;SDS011;9585;51.018;4.282;2022-07-23T06:23:52;5.47;;;4.97;;
18905;SDS011;9585;51.018;4.282;2022-07-23T06:26:19;6.68;;;5.25;;
18905;SDS011;9585;51.018;4.282;2022-07-23T06:28:47;5.72;;;4.55;;
18905;SDS011;9585;51.018;4.282;2022-07-23T06:31:14;5.72;;;4.57;;
18905;SDS011;9585;51.018;4.282;2022-07-23T06:33:43;4.72;;;4.22;;
18905;SDS011;9585;51.018;4.282;2022-07-23T06:36:10;3.78;;;2.92;;
18905;SDS011;9585;51.018;4.282;2022-07-23T06:38:38;4.57;;;4.13;;
18905;SDS011;9585;51.018;4.282;2022-07-23T06:41:05;3.38;;;3.03;;
18905;SDS011;9585;51.018;4.282;2022-07-23T06:43:32;7.85;;;4.50;;
18905;SDS011;9585;51.018;4.282;2022-07-23T06:46:00;6.07;;;4.75;;
18905;SDS011;9585;51.018;4.282;2022-07-23T06:48:27;4.90;;;3.83;;
18905;SDS011;9585;51.018;4.282;2022-07-23T06:50:56;4.00;;;3.55;;
18905;SDS011;9585;51.018;4.282;2022-07-23T06:53:24;5.70;;;4.07;;
18905;SDS011;9585;51.018;4.282;2022-07-23T06:55:51;5.95;;;4.35;;
18905;SDS011;9585;51.018;4.282;2022-07-23T06:58:18;6.70;;;4.38;;
18905;SDS011;9585;51.018;4.282;2022-07-23T07:00:46;5.50;;;4.50;;
18905;SDS011;9585;51.018;4.282;2022-07-23T07:03:13;4.35;;;3.58;;
18905;SDS011;9585;51.018;4.282;2022-07-23T07:05:43;5.90;;;4.63;;
18905;SDS011;9585;51.018;4.282;2022-07-23T07:08:24;5.10;;;4.60;;
18905;SDS011;9585;51.018;4.282;2022-07-23T07:10:51;5.05;;;4.10;;
18905;SDS011;9585;51.018;4.282;2022-07-23T07:13:19;6.28;;;4.28;;
18905;SDS011;9585;51.018;4.282;2022-07-23T07:15:53;4.78;;;3.83;;
18905;SDS011;9585;51.018;4.282;2022-07-23T07:18:20;4.90;;;3.47;;
18905;SDS011;9585;51.018;4.282;2022-07-23T07:20:48;3.55;;;2.97;;
18905;SDS011;9585;51.018;4.282;2022-07-23T07:23:16;6.97;;;4.07;;
18905;SDS011;9585;51.018;4.282;2022-07-23T07:25:45;4.60;;;4.15;;
18905;SDS011;9585;51.018;4.282;2022-07-23T07:28:16;4.95;;;4.38;;
18905;SDS011;9585;51.018;4.282;2022-07-23T07:30:44;5.72;;;4.45;;
18905;SDS011;9585;51.018;4.282;2022-07-23T07:33:11;5.35;;;3.80;;
18905;SDS011;9585;51.018;4.282;2022-07-23T07:35:38;5.53;;;3.92;;
18905;SDS011;9585;51.018;4.282;2022-07-23T07:38:06;5.53;;;3.83;;
18905;SDS011;9585;51.018;4.282;2022-07-23T07:40:33;5.82;;;3.67;;
18905;SDS011;9585;51.018;4.282;2022-07-23T07:43:02;6.03;;;3.75;;
18905;SDS011;9585;51.018;4.282;2022-07-23T07:45:30;4.28;;;3.50;;
18905;SDS011;9585;51.018;4.282;2022-07-23T07:47:58;4.63;;;3.90;;
18905;SDS011;9585;51.018;4.282;2022-07-23T07:50:26;5.10;;;3.42;;
18905;SDS011;9585;51.018;4.282;2022-07-23T07:52:53;4.15;;;3.63;;
18905;SDS011;9585;51.018;4.282;2022-07-23T07:55:21;4.53;;;3.47;;
18905;SDS011;9585;51.018;4.282;2022-07-23T07:57:48;5.32;;;4.68;;
18905;SDS011;9585;51.018;4.282;2022-07-23T08:00:17;5.10;;;3.85;;
18905;SDS011;9585;51.018;4.282;2022-07-23T08:02:45;4.22;;;3.47;;
18905;SDS011;9585;51.018;4.282;2022-07-23T08:05:14;3.20;;;2.90;;
18905;SDS011;9585;51.018;4.282;2022-07-23T08:07:44;4.80;;;4.30;;
18905;SDS011;9585;51.018;4.282;2022-07-23T08:10:12;6.13;;;3.78;;
18905;SDS011;9585;51.018;4.282;2022-07-23T08:12:43;4.20;;;3.17;;
18905;SDS011;9585;51.018;4.282;2022-07-23T08:15:11;4.70;;;3.83;;
18905;SDS011;9585;51.018;4.282;2022-07-23T08:17:41;3.42;;;2.70;;
18905;SDS011;9585;51.018;4.282;2022-07-23T08:20:10;6.50;;;4.32;;
18905;SDS011;9585;51.018;4.282;2022-07-23T08:22:42;4.75;;;3.75;;
18905;SDS011;9585;51.018;4.282;2022-07-23T08:25:11;5.40;;;4.22;;
18905;SDS011;9585;51.018;4.282;2022-07-23T08:27:39;5.63;;;4.20;;
18905;SDS011;9585;51.018;4.282;2022-07-23T08:30:07;4.90;;;3.70;;
18905;SDS011;9585;51.018;4.282;2022-07-23T08:32:48;4.88;;;4.00;;
18905;SDS011;9585;51.018;4.282;2022-07-23T08:35:17;3.85;;;2.58;;
18905;SDS011;9585;51.018;4.282;2022-07-23T08:37:48;4.22;;;3.78;;
18905;SDS011;9585;51.018;4.282;2022-07-23T08:40:15;3.83;;;3.22;;
18905;SDS011;9585;51.018;4.282;2022-07-23T08:42:42;3.45;;;2.97;;
18905;SDS011;9585;51.018;4.282;2022-07-23T08:45:14;4.35;;;3.42;;
18905;SDS011;9585;51.018;4.282;2022-07-23T08:47:49;4.47;;;3.28;;
18905;SDS011;9585;51.018;4.282;2022-07-23T08:50:17;3.70;;;3.40;;
18905;SDS011;9585;51.018;4.282;2022-07-23T08:52:45;7.20;;;3.78;;
18905;SDS011;9585;51.018;4.282;2022-07-23T08:55:17;3.35;;;3.05;;
18905;SDS011;9585;51.018;4.282;2022-07-23T08:57:45;4.40;;;3.33;;
18905;SDS011;9585;51.018;4.282;2022-07-23T09:00:16;3.03;;;2.58;;
18905;SDS011;9585;51.018;4.282;2022-07-23T09:02:44;3.00;;;2.70;;
18905;SDS011;9585;51.018;4.282;2022-07-23T09:05:14;4.10;;;3.03;;
18905;SDS011;9585;51.018;4.282;2022-07-23T09:10:40;3.67;;;2.92;;
18905;SDS011;9585;51.018;4.282;2022-07-23T09:13:33;2.72;;;2.47;;
18905;SDS011;9585;51.018;4.282;2022-07-23T09:16:04;4.05;;;3.00;;
18905;SDS011;9585;51.018;4.282;2022-07-23T09:18:38;2.90;;;2.13;;
18905;SDS011;9585;51.018;4.282;2022-07-23T09:21:23;4.05;;;3.53;;
18905;SDS011;9585;51.018;4.282;2022-07-23T09:23:57;4.07;;;3.05;;
18905;SDS011;9585;51.018;4.282;2022-07-23T09:26:27;4.88;;;3.08;;
18905;SDS011;9585;51.018;4.282;2022-07-23T09:28:57;4.20;;;3.40;;
18905;SDS011;9585;51.018;4.282;2022-07-23T09:31:30;4.32;;;2.65;;
18905;SDS011;9585;51.018;4.282;2022-07-23T09:34:09;4.43;;;2.70;;
18905;SDS011;9585;51.018;4.282;2022-07-23T09:36:43;3.22;;;2.10;;
18905;SDS011;9585;51.018;4.282;2022-07-23T09:39:10;2.88;;;2.50;;
18905;SDS011;9585;51.018;4.282;2022-07-23T09:41:40;3.40;;;2.80;;
18905;SDS011;9585;51.018;4.282;2022-07-23T09:44:09;3.67;;;3.05;;
18905;SDS011;9585;51.018;4.282;2022-07-23T09:46:39;4.30;;;3.15;;
18905;SDS011;9585;51.018;4.282;2022-07-23T09:49:14;4.40;;;3.65;;
18905;SDS011;9585;51.018;4.282;2022-07-23T09:51:46;3.40;;;2.95;;
18905;SDS011;9585;51.018;4.282;2022-07-23T09:54:26;3.45;;;2.85;;
18905;SDS011;9585;51.018;4.282;2022-07-23T09:56:56;3.10;;;2.20;;
18905;SDS011;9585;51.018;4.282;2022-07-23T09:59:26;3.20;;;2.90;;
18905;SDS011;9585;51.018;4.282;2022-07-23T10:01:54;2.28;;;1.92;;
18905;SDS011;9585;51.018;4.282;2022-07-23T10:04:25;3.15;;;2.72;;
18905;SDS011;9585;51.018;4.282;2022-07-23T10:06:55;4.15;;;3.75;;
18905;SDS011;9585;51.018;4.282;2022-07-23T10:09:24;5.88;;;3.10;;
18905;SDS011;9585;51.018;4.282;2022-07-23T10:11:55;2.72;;;2.28;;
18905;SDS011;9585;51.018;4.282;2022-07-23T10:14:30;2.75;;;2.45;;
18905;SDS011;9585;51.018;4.282;2022-07-23T10:17:00;3.47;;;2.70;;
18905;SDS011;9585;51.018;4.282;2022-07-23T10:19:29;2.80;;;1.80;;
18905;SDS011;9585;51.018;4.282;2022-07-23T10:22:00;2.85;;;1.77;;
18905;SDS011;9585;51.018;4.282;2022-07-23T10:24:33;3.42;;;2.42;;
18905;SDS011;9585;51.018;4.282;2022-07-23T10:27:19;2.33;;;1.90;;
18905;SDS011;9585;51.018;4.282;2022-07-23T10:30:02;3.20;;;1.85;;
18905;SDS011;9585;51.018;4.282;2022-07-23T10:32:37;2.30;;;2.03;;
18905;SDS011;9585;51.018;4.282;2022-07-23T10:35:24;2.22;;;1.63;;
18905;SDS011;9585;51.018;4.282;2022-07-23T10:38:07;2.33;;;2.00;;
18905;SDS011;9585;51.018;4.282;2022-07-23T10:40:55;2.83;;;2.63;;
18905;SDS011;9585;51.018;4.282;2022-07-23T10:43:23;3.13;;;2.17;;
18905;SDS011;9585;51.018;4.282;2022-07-23T10:45:51;2.63;;;2.22;;
18905;SDS011;9585;51.018;4.282;2022-07-23T10:48:20;3.20;;;2.17;;
18905;SDS011;9585;51.018;4.282;2022-07-23T10:51:08;3.15;;;1.92;;
18905;SDS011;9585;51.018;4.282;2022-07-23T10:53:55;2.90;;;1.80;;
18905;SDS011;9585;51.018;4.282;2022-07-23T10:59:18;2.40;;;1.40;;
18905;SDS011;9585;51.018;4.282;2022-07-23T11:01:48;2.22;;;1.75;;
18905;SDS011;9585;51.018;4.282;2022-07-23T11:04:17;2.13;;;1.85;;
18905;SDS011;9585;51.018;4.282;2022-07-23T11:09:42;1.92;;;1.67;;
18905;SDS011;9585;51.018;4.282;2022-07-23T11:15:07;3.22;;;2.28;;
18905;SDS011;9585;51.018;4.282;2022-07-23T11:17:37;2.63;;;2.08;;
18905;SDS011;9585;51.018;4.282;2022-07-23T11:20:25;2.75;;;2.40;;
18905;SDS011;9585;51.018;4.282;2022-07-23T11:22:54;2.60;;;1.58;;
18905;SDS011;9585;51.018;4.282;2022-07-23T11:25:34;3.97;;;1.50;;
18905;SDS011;9585;51.018;4.282;2022-07-23T11:28:12;2.33;;;1.42;;
18905;SDS011;9585;51.018;4.282;2022-07-23T11:30:42;2.55;;;1.70;;
18905;SDS011;9585;51.018;4.282;2022-07-23T11:33:17;2.17;;;1.98;;
18905;SDS011;9585;51.018;4.282;2022-07-23T11:35:47;2.13;;;1.80;;
18905;SDS011;9585;51.018;4.282;2022-07-23T11:38:16;2.50;;;1.70;;
18905;SDS011;9585;51.018;4.282;2022-07-23T11:40:50;2.35;;;1.80;;
18905;SDS011;9585;51.018;4.282;2022-07-23T11:43:19;2.25;;;1.45;;
18905;SDS011;9585;51.018;4.282;2022-07-23T11:45:49;1.58;;;1.38;;
18905;SDS011;9585;51.018;4.282;2022-07-23T11:48:19;4.05;;;1.67;;
18905;SDS011;9585;51.018;4.282;2022-07-23T11:50:47;3.88;;;2.00;;
18905;SDS011;9585;51.018;4.282;2022-07-23T11:53:20;1.77;;;1.67;;
18905;SDS011;9585;51.018;4.282;2022-07-23T11:55:50;1.98;;;1.80;;
18905;SDS011;9585;51.018;4.282;2022-07-23T11:58:19;1.92;;;1.45;;
18905;SDS011;9585;51.018;4.282;2022-07-23T12:00:47;1.63;;;1.50;;
18905;SDS011;9585;51.018;4.282;2022-07-23T12:03:16;2.53;;;1.42;;
18905;SDS011;9585;51.018;4.282;2022-07-23T12:05:43;3.17;;;1.70;;
18905;SDS011;9585;51.018;4.282;2022-07-23T12:08:10;3.38;;;1.70;;
18905;SDS011;9585;51.018;4.282;2022-07-23T12:10:39;2.03;;;1.60;;
18905;SDS011;9585;51.018;4.282;2022-07-23T12:13:09;2.97;;;1.48;;
18905;SDS011;9585;51.018;4.282;2022-07-23T12:15:39;3.15;;;1.40;;
18905;SDS011;9585;51.018;4.282;2022-07-23T12:18:08;1.55;;;1.40;;
18905;SDS011;9585;51.018;4.282;2022-07-23T12:20:38;2.85;;;1.50;;
18905;SDS011;9585;51.018;4.282;2022-07-23T12:23:08;2.20;;;1.52;;
18905;SDS011;9585;51.018;4.282;2022-07-23T12:25:38;1.73;;;1.20;;
18905;SDS011;9585;51.018;4.282;2022-07-23T12:28:07;1.70;;;1.40;;
18905;SDS011;9585;51.018;4.282;2022-07-23T12:30:38;2.67;;;1.60;;
18905;SDS011;9585;51.018;4.282;2022-07-23T12:33:06;2.75;;;1.55;;
18905;SDS011;9585;51.018;4.282;2022-07-23T12:35:36;1.42;;;1.33;;
18905;SDS011;9585;51.018;4.282;2022-07-23T12:38:07;2.13;;;1.58;;
18905;SDS011;9585;51.018;4.282;2022-07-23T12:40:36;1.65;;;1.50;;
18905;SDS011;9585;51.018;4.282;2022-07-23T12:43:09;1.83;;;1.50;;
18905;SDS011;9585;51.018;4.282;2022-07-23T12:45:46;1.67;;;1.40;;
18905;SDS011;9585;51.018;4.282;2022-07-23T12:48:16;1.75;;;1.60;;
18905;SDS011;9585;51.018;4.282;2022-07-23T12:50:50;2.83;;;1.60;;
18905;SDS011;9585;51.018;4.282;2022-07-23T12:53:20;2.38;;;1.58;;
18905;SDS011;9585;51.018;4.282;2022-07-23T12:55:49;2.67;;;1.70;;
18905;SDS011;9585;51.018;4.282;2022-07-23T12:58:19;1.58;;;1.48;;
18905;SDS011;9585;51.018;4.282;2022-07-23T13:00:58;1.80;;;1.50;;
18905;SDS011;9585;51.018;4.282;2022-07-23T13:03:31;2.33;;;1.45;;
18905;SDS011;9585;51.018;4.282;2022-07-23T13:06:04;3.53;;;1.60;;
18905;SDS011;9585;51.018;4.282;2022-07-23T13:08:35;2.20;;;2.00;;
18905;SDS011;9585;51.018;4.282;2022-07-23T13:11:05;2.25;;;1.90;;
18905;SDS011;9585;51.018;4.282;2022-07-23T13:13:36;2.40;;;1.63;;
18905;SDS011;9585;51.018;4.282;2022-07-23T13:16:04;2.13;;;1.92;;
18905;SDS011;9585;51.018;4.282;2022-07-23T13:18:32;2.65;;;1.85;;
18905;SDS011;9585;51.018;4.282;2022-07-23T13:21:02;2.20;;;1.92;;
18905;SDS011;9585;51.018;4.282;2022-07-23T13:23:30;1.90;;;1.60;;
18905;SDS011;9585;51.018;4.282;2022-07-23T13:25:58;2.70;;;1.80;;
18905;SDS011;9585;51.018;4.282;2022-07-23T13:28:25;1.75;;;1.65;;
18905;SDS011;9585;51.018;4.282;2022-07-23T13:30:54;1.73;;;1.55;;
18905;SDS011;9585;51.018;4.282;2022-07-23T13:33:22;1.90;;;1.75;;
18905;SDS011;9585;51.018;4.282;2022-07-23T13:35:51;2.53;;;2.20;;
18905;SDS011;9585;51.018;4.282;2022-07-23T13:38:19;3.78;;;2.30;;
18905;SDS011;9585;51.018;4.282;2022-07-23T13:40:48;2.20;;;2.00;;
18905;SDS011;9585;51.018;4.282;2022-07-23T13:43:17;3.20;;;2.30;;
18905;SDS011;9585;51.018;4.282;2022-07-23T13:45:45;2.38;;;2.17;;
18905;SDS011;9585;51.018;4.282;2022-07-23T13:48:16;3.38;;;2.25;;
18905;SDS011;9585;51.018;4.282;2022-07-23T13:50:45;4.68;;;2.55;;
18905;SDS011;9585;51.018;4.282;2022-07-23T13:53:13;2.38;;;2.10;;
18905;SDS011;9585;51.018;4.282;2022-07-23T13:55:42;2.50;;;2.30;;
18905;SDS011;9585;51.018;4.282;2022-07-23T13:58:10;2.92;;;2.30;;
18905;SDS011;9585;51.018;4.282;2022-07-23T14:00:39;2.33;;;2.10;;
18905;SDS011;9585;51.018;4.282;2022-07-23T14:03:08;3.20;;;2.60;;
18905;SDS011;9585;51.018;4.282;2022-07-23T14:05:37;2.53;;;2.17;;
18905;SDS011;9585;51.018;4.282;2022-07-23T14:08:05;2.80;;;2.47;;
18905;SDS011;9585;51.018;4.282;2022-07-23T14:10:33;2.83;;;2.30;;
18905;SDS011;9585;51.018;4.282;2022-07-23T14:13:00;2.83;;;2.53;;
18905;SDS011;9585;51.018;4.282;2022-07-23T14:15:28;2.95;;;2.20;;
18905;SDS011;9585;51.018;4.282;2022-07-23T14:17:57;4.80;;;2.85;;
18905;SDS011;9585;51.018;4.282;2022-07-23T14:20:25;2.40;;;2.20;;
18905;SDS011;9585;51.018;4.282;2022-07-23T14:22:54;3.80;;;2.60;;
18905;SDS011;9585;51.018;4.282;2022-07-23T14:25:23;3.55;;;2.47;;
18905;SDS011;9585;51.018;4.282;2022-07-23T14:27:50;3.03;;;2.30;;
18905;SDS011;9585;51.018;4.282;2022-07-23T14:30:17;2.58;;;2.38;;
18905;SDS011;9585;51.018;4.282;2022-07-23T14:32:45;3.28;;;2.45;;
18905;SDS011;9585;51.018;4.282;2022-07-23T14:35:19;4.68;;;2.80;;
18905;SDS011;9585;51.018;4.282;2022-07-23T14:37:46;2.95;;;2.28;;
18905;SDS011;9585;51.018;4.282;2022-07-23T14:40:15;2.60;;;2.22;;
18905;SDS011;9585;51.018;4.282;2022-07-23T14:42:58;3.10;;;2.60;;
18905;SDS011;9585;51.018;4.282;2022-07-23T14:45:39;2.33;;;2.13;;
18905;SDS011;9585;51.018;4.282;2022-07-23T14:48:07;4.03;;;2.42;;
18905;SDS011;9585;51.018;4.282;2022-07-23T14:50:34;3.55;;;2.40;;
18905;SDS011;9585;51.018;4.282;2022-07-23T14:53:06;2.63;;;2.42;;
18905;SDS011;9585;51.018;4.282;2022-07-23T14:55:36;2.28;;;2.08;;
18905;SDS011;9585;51.018;4.282;2022-07-23T14:58:04;2.70;;;2.28;;
18905;SDS011;9585;51.018;4.282;2022-07-23T15:00:31;2.83;;;2.60;;
18905;SDS011;9585;51.018;4.282;2022-07-23T15:02:59;3.03;;;2.50;;
18905;SDS011;9585;51.018;4.282;2022-07-23T15:05:26;2.80;;;2.25;;
18905;SDS011;9585;51.018;4.282;2022-07-23T15:07:58;2.35;;;2.15;;
18905;SDS011;9585;51.018;4.282;2022-07-23T15:10:26;2.63;;;2.25;;
18905;SDS011;9585;51.018;4.282;2022-07-23T15:12:55;2.55;;;2.35;;
18905;SDS011;9585;51.018;4.282;2022-07-23T15:15:22;2.53;;;2.30;;
18905;SDS011;9585;51.018;4.282;2022-07-23T15:18:02;2.60;;;2.40;;
18905;SDS011;9585;51.018;4.282;2022-07-23T15:20:30;3.33;;;2.92;;
18905;SDS011;9585;51.018;4.282;2022-07-23T15:22:58;2.50;;;2.30;;
18905;SDS011;9585;51.018;4.282;2022-07-23T15:25:25;2.45;;;2.25;;